createdAt,value
2018-11-07T07:31:28.367Z,48.57
2018-11-07T07:33:56.644Z,47.37
2018-11-07T07:36:24.880Z,49.90
2018-11-07T07:38:53.093Z,51.43
2018-11-07T07:41:21.352Z,54.80
2018-11-07T07:43:49.575Z,53.77
2018-11-07T07:46:17.820Z,53.40
2018-11-07T07:48:46.044Z,50.87
2018-11-07T07:51:14.292Z,55.20
2018-11-07T07:53:42.508Z,56.03
2018-11-07T07:56:10.780Z,53.73
2018-11-07T07:58:39.006Z,54.70
2018-11-07T08:01:07.247Z,57.17
2018-11-07T08:03:35.464Z,54.73
2018-11-07T08:06:03.713Z,57.43
2018-11-07T08:08:31.944Z,56.87
2018-11-07T08:11:00.187Z,56.03
2018-11-07T08:13:28.509Z,56.50
2018-11-07T08:15:56.671Z,58.13
2018-11-07T08:18:24.888Z,57.07
2018-11-07T08:20:53.136Z,55.77
2018-11-07T08:23:21.352Z,56.23
2018-11-07T08:25:53.324Z,56.83
2018-11-07T08:28:21.554Z,53.63
2018-11-07T08:30:49.801Z,55.07
2018-11-07T08:33:18.036Z,53.33
2018-11-07T08:35:46.274Z,54.57
2018-11-07T08:38:14.489Z,52.17
2018-11-07T08:40:42.743Z,52.90
2018-11-07T08:43:10.976Z,52.77
2018-11-07T08:45:39.216Z,51.23
2018-11-07T08:48:07.461Z,53.33
2018-11-07T08:50:35.683Z,52.57
2018-11-07T08:53:03.913Z,50.83
2018-11-07T08:55:32.124Z,49.77
2018-11-07T08:58:00.356Z,50.13
2018-11-07T09:00:28.564Z,50.63
2018-11-07T09:02:56.801Z,51.27
2018-11-07T09:05:25.024Z,52.60
2018-11-07T09:07:53.247Z,54.37
2018-11-07T09:10:22.723Z,53.10
2018-11-07T09:12:50.955Z,53.20
2018-11-07T09:15:20.411Z,54.60
2018-11-07T09:17:48.651Z,51.20
2018-11-07T09:20:18.124Z,47.20
2018-11-07T09:22:46.361Z,44.20
2018-11-07T09:25:15.184Z,44.30
2018-11-07T09:27:43.995Z,42.77
2018-11-07T09:30:14.557Z,40.33
2018-11-07T09:32:42.800Z,37.03
2018-11-07T09:35:11.779Z,39.20
2018-11-07T09:37:40.032Z,37.27
2018-11-07T09:40:11.308Z,37.47
2018-11-07T09:42:40.339Z,33.93
2018-11-07T09:45:09.928Z,35.27
2018-11-07T09:47:38.401Z,33.93
2018-11-07T09:50:07.412Z,33.00
2018-11-07T09:52:35.832Z,33.57
2018-11-07T09:55:04.545Z,32.00
2018-11-07T09:57:32.787Z,32.93
2018-11-07T10:00:01.004Z,32.93
2018-11-07T10:02:29.235Z,30.30
2018-11-07T10:04:57.448Z,30.63
2018-11-07T10:07:25.672Z,30.90
2018-11-07T10:09:53.892Z,30.07
2018-11-07T10:12:22.158Z,27.77
2018-11-07T10:14:50.383Z,28.67
2018-11-07T10:17:18.620Z,27.00
2018-11-07T10:19:46.844Z,29.40
2018-11-07T10:22:15.089Z,28.10
2018-11-07T10:24:43.314Z,27.80
2018-11-07T10:27:11.658Z,26.77
2018-11-07T10:29:40.046Z,27.07
2018-11-07T10:32:08.089Z,26.50
2018-11-07T10:34:36.336Z,26.00
2018-11-07T10:37:04.587Z,25.17
2018-11-07T10:39:32.829Z,26.27
2018-11-07T10:42:01.097Z,26.20
2018-11-07T10:44:29.400Z,24.77
2018-11-07T10:46:57.592Z,26.60
2018-11-07T10:49:25.800Z,23.93
2018-11-07T10:51:54.075Z,25.20
2018-11-07T10:54:22.327Z,25.07
2018-11-07T10:56:50.540Z,25.17
2018-11-07T10:59:18.787Z,24.23
2018-11-07T11:01:52.341Z,24.40
2018-11-07T11:04:20.581Z,24.77
2018-11-07T11:06:48.791Z,25.27
2018-11-07T11:09:17.025Z,24.57
2018-11-07T11:11:45.245Z,23.37
2018-11-07T11:14:13.484Z,24.07
2018-11-07T11:16:41.706Z,24.77
2018-11-07T11:19:09.968Z,25.07
2018-11-07T11:21:38.196Z,22.20
2018-11-07T11:24:06.437Z,24.30
2018-11-07T11:26:34.660Z,25.43
2018-11-07T11:29:02.933Z,24.37
2018-11-07T11:31:31.185Z,24.13
2018-11-07T11:33:59.543Z,25.77
2018-11-07T11:36:27.711Z,23.90
2018-11-07T11:38:55.949Z,24.03
2018-11-07T11:41:24.213Z,23.17
2018-11-07T11:43:52.460Z,24.33
2018-11-07T11:46:20.692Z,23.17
2018-11-07T11:48:48.945Z,23.73
2018-11-07T11:51:17.223Z,23.93
2018-11-07T11:53:45.456Z,23.13
2018-11-07T11:56:13.696Z,22.10
2018-11-07T11:58:41.933Z,22.40
2018-11-07T12:01:10.203Z,22.60
2018-11-07T12:03:38.420Z,22.07
2018-11-07T12:06:06.666Z,22.50
2018-11-07T12:08:34.993Z,23.07
2018-11-07T12:11:03.164Z,23.07
2018-11-07T12:13:31.436Z,22.40
2018-11-07T12:15:59.687Z,22.97
2018-11-07T12:18:27.912Z,23.63
2018-11-07T12:20:56.166Z,22.23
2018-11-07T12:23:24.413Z,22.10
2018-11-07T12:25:52.659Z,22.17
2018-11-07T12:28:20.884Z,23.63
2018-11-07T12:30:49.140Z,22.57
2018-11-07T12:33:17.364Z,23.03
2018-11-07T12:35:45.603Z,22.37
2018-11-07T12:38:13.832Z,21.27
2018-11-07T12:40:42.078Z,20.23
2018-11-07T12:43:10.340Z,21.90
2018-11-07T12:45:38.572Z,22.60
2018-11-07T12:48:06.796Z,21.57
2018-11-07T12:50:35.045Z,21.67
2018-11-07T12:53:03.269Z,22.70
2018-11-07T12:55:31.519Z,20.63
2018-11-07T12:57:59.811Z,21.40
2018-11-07T13:00:28.116Z,22.63
2018-11-07T13:02:56.419Z,21.10
2018-11-07T13:05:25.467Z,20.33
2018-11-07T13:07:54.434Z,25.50
2018-11-07T13:10:23.159Z,23.23
2018-11-07T13:12:51.841Z,20.53
2018-11-07T13:15:20.142Z,23.37
2018-11-07T13:17:49.144Z,21.57
2018-11-07T13:20:19.024Z,24.07
2018-11-07T13:22:48.531Z,25.20
2018-11-07T13:25:17.112Z,24.23
2018-11-07T13:27:45.340Z,24.33
2018-11-07T13:30:15.678Z,22.23
2018-11-07T13:32:43.932Z,23.70
2018-11-07T13:35:12.980Z,24.90
2018-11-07T13:37:42.070Z,23.70
2018-11-07T13:40:13.152Z,25.10
2018-11-07T13:42:41.596Z,23.53
2018-11-07T13:45:13.926Z,24.20
2018-11-07T13:47:43.253Z,25.50
2018-11-07T13:50:12.262Z,24.37
2018-11-07T13:52:40.510Z,22.73
2018-11-07T13:55:09.536Z,24.00
2018-11-07T13:57:38.160Z,22.30
2018-11-07T14:00:09.416Z,23.47
2018-11-07T14:02:37.644Z,24.27
2018-11-07T14:05:06.613Z,24.00
2018-11-07T14:07:34.976Z,24.03
2018-11-07T14:10:03.341Z,23.63
2018-11-07T14:12:31.584Z,23.70
2018-11-07T14:14:59.808Z,24.43
2018-11-07T14:17:28.053Z,23.97
2018-11-07T14:19:56.287Z,24.17
2018-11-07T14:22:24.524Z,23.13
2018-11-07T14:24:52.748Z,24.43
2018-11-07T14:27:21.041Z,24.10
2018-11-07T14:29:49.231Z,25.17
2018-11-07T14:32:17.501Z,23.40
2018-11-07T14:34:45.948Z,24.67
2018-11-07T14:37:14.192Z,23.83
2018-11-07T14:39:42.410Z,25.40
2018-11-07T14:42:10.709Z,25.83
2018-11-07T14:44:38.915Z,24.40
2018-11-07T14:47:07.185Z,24.80
2018-11-07T14:49:35.407Z,24.80
2018-11-07T14:52:03.664Z,26.20
2018-11-07T14:54:31.887Z,26.60
2018-11-07T14:57:00.122Z,27.53
2018-11-07T14:59:28.353Z,29.20
2018-11-07T15:01:56.596Z,28.57
2018-11-07T15:04:24.820Z,31.13
2018-11-07T15:06:53.108Z,28.60
2018-11-07T15:09:21.334Z,30.03
2018-11-07T15:11:49.632Z,29.37
2018-11-07T15:14:17.824Z,28.77
2018-11-07T15:16:46.068Z,27.03
2018-11-07T15:19:14.284Z,28.10
2018-11-07T15:21:42.525Z,28.23
2018-11-07T15:24:10.740Z,28.07
2018-11-07T15:26:38.984Z,27.10
2018-11-07T15:29:07.208Z,29.30
2018-11-07T15:31:35.456Z,30.13
2018-11-07T15:34:03.677Z,27.77
2018-11-07T15:36:31.962Z,28.47
2018-11-07T15:39:00.148Z,28.40
2018-11-07T15:41:28.402Z,28.00
2018-11-07T15:43:56.629Z,27.40
2018-11-07T15:46:24.871Z,27.53
2018-11-07T15:48:53.084Z,24.93
2018-11-07T15:51:37.173Z,27.17
2018-11-07T15:54:05.652Z,27.67
2018-11-07T15:56:35.205Z,29.67
2018-11-07T15:59:03.468Z,33.20
2018-11-07T16:01:31.728Z,37.57
2018-11-07T16:04:01.032Z,30.87
2018-11-07T16:06:29.244Z,30.43
2018-11-07T16:08:58.496Z,32.87
2018-11-07T16:11:28.007Z,30.07
2018-11-07T16:13:56.493Z,29.27
2018-11-07T16:16:24.971Z,29.50
2018-11-07T16:18:53.209Z,31.87
2018-11-07T16:21:21.424Z,31.70
2018-11-07T16:23:49.719Z,28.03
2018-11-07T16:26:17.913Z,28.63
2018-11-07T16:28:46.182Z,29.20
2018-11-07T16:31:14.410Z,29.93
2018-11-07T16:33:42.864Z,30.30
2018-11-07T16:36:11.088Z,29.53
2018-11-07T16:38:39.377Z,29.90
2018-11-07T16:41:07.659Z,35.43
2018-11-07T16:43:35.963Z,36.67
2018-11-07T16:46:04.260Z,37.67
2018-11-07T16:48:32.516Z,39.27
2018-11-07T16:51:00.736Z,37.93
2018-11-07T16:53:28.964Z,36.47
2018-11-07T16:55:57.205Z,36.20
2018-11-07T16:58:25.448Z,32.20
2018-11-07T17:00:53.671Z,32.80
2018-11-07T17:03:21.911Z,32.77
2018-11-07T17:05:50.136Z,32.77
2018-11-07T17:08:18.377Z,30.20
2018-11-07T17:10:46.632Z,32.80
2018-11-07T17:13:14.860Z,31.13
2018-11-07T17:15:43.129Z,33.83
2018-11-07T17:18:11.347Z,28.37
2018-11-07T17:20:39.616Z,30.77
2018-11-07T17:23:07.824Z,32.77
2018-11-07T17:25:36.075Z,30.47
2018-11-07T17:28:04.517Z,30.13
2018-11-07T17:30:32.748Z,30.33
2018-11-07T17:33:01.011Z,29.33
2018-11-07T17:35:29.235Z,30.03
2018-11-07T17:37:57.483Z,30.20
2018-11-07T17:40:25.752Z,31.23
2018-11-07T17:42:54.199Z,30.90
2018-11-07T17:45:22.995Z,30.93
2018-11-07T17:47:52.060Z,33.80
2018-11-07T17:50:21.072Z,33.67
2018-11-07T17:52:49.663Z,32.80
2018-11-07T17:55:18.476Z,32.10
2018-11-07T17:57:46.700Z,31.87
2018-11-07T18:00:19.217Z,36.20
2018-11-07T18:02:47.459Z,33.73
2018-11-07T18:05:15.700Z,30.77
2018-11-07T18:07:43.953Z,31.63
2018-11-07T18:10:16.452Z,30.67
2018-11-07T18:12:45.032Z,34.20
2018-11-07T18:15:13.508Z,36.43
2018-11-07T18:17:41.737Z,38.87
2018-11-07T18:20:11.119Z,37.57
2018-11-07T18:22:39.387Z,35.97
2018-11-07T18:25:08.722Z,36.53
2018-11-07T18:27:36.956Z,37.93
2018-11-07T18:30:06.154Z,35.80
2018-11-07T18:32:34.387Z,34.67
2018-11-07T18:35:02.695Z,34.00
2018-11-07T18:37:30.868Z,33.80
2018-11-07T18:39:59.099Z,40.30
2018-11-07T18:42:27.344Z,40.67
2018-11-07T18:44:55.589Z,43.97
2018-11-07T18:47:23.828Z,44.40
2018-11-07T18:49:52.091Z,46.13
2018-11-07T18:52:20.318Z,47.30
2018-11-07T18:54:48.564Z,42.73
2018-11-07T18:57:16.808Z,42.20
2018-11-07T18:59:45.124Z,40.73
2018-11-07T19:02:13.363Z,38.53
2018-11-07T19:04:41.663Z,36.17
2018-11-07T19:07:09.896Z,38.57
2018-11-07T19:09:38.135Z,38.73
2018-11-07T19:12:06.484Z,36.70
2018-11-07T19:14:34.730Z,35.77
2018-11-07T19:17:03.068Z,33.47
2018-11-07T19:19:31.321Z,36.77
2018-11-07T19:21:59.769Z,36.27
2018-11-07T19:24:28.011Z,32.40
2018-11-07T19:26:56.367Z,33.87
2018-11-07T19:29:24.535Z,31.33
2018-11-07T19:31:52.755Z,32.10
2018-11-07T19:34:21.011Z,30.93
2018-11-07T19:36:49.244Z,32.70
2018-11-07T19:39:17.473Z,33.70
2018-11-07T19:41:45.716Z,31.23
2018-11-07T19:44:13.962Z,33.20
2018-11-07T19:46:42.248Z,33.03
2018-11-07T19:49:10.492Z,34.97
2018-11-07T19:51:38.704Z,32.73
2018-11-07T19:54:06.927Z,33.53
2018-11-07T19:56:35.166Z,35.57
2018-11-07T19:59:03.384Z,32.20
2018-11-07T20:01:31.630Z,31.43
2018-11-07T20:03:59.844Z,28.90
2018-11-07T20:06:28.092Z,32.10
2018-11-07T20:08:56.316Z,33.23
2018-11-07T20:11:24.544Z,32.87
2018-11-07T20:13:52.764Z,31.73
2018-11-07T20:16:21.085Z,30.87
2018-11-07T20:18:49.265Z,30.90
2018-11-07T20:21:17.501Z,31.53
2018-11-07T20:23:45.740Z,31.47
2018-11-07T20:26:13.984Z,32.47
2018-11-07T20:28:42.269Z,32.73
2018-11-07T20:31:10.471Z,31.20
2018-11-07T20:33:38.696Z,31.03
2018-11-07T20:36:07.019Z,31.80
2018-11-07T20:38:35.183Z,32.33
2018-11-07T20:41:03.436Z,35.93
2018-11-07T20:43:31.684Z,34.33
2018-11-07T20:45:59.924Z,33.53
2018-11-07T20:48:28.145Z,32.80
2018-11-07T20:50:56.384Z,31.93
2018-11-07T20:53:24.615Z,32.03
2018-11-07T20:55:52.856Z,33.03
2018-11-07T20:58:21.075Z,32.20
2018-11-07T21:00:49.318Z,37.47
2018-11-07T21:03:17.540Z,37.33
